Terminal Aerodrome Forecast
Issued by NWS

Home | Current Version | Previous Version | Graphics & Text | Print | Product List | Glossary On
Versions: 1 2 3 4 5 6 7 8 9 10 11 12 13 14 15 16 17 18 19 20 21 22 23
000
FTUS43 KGRB 281006 AAB
TAFAUW
TAF AMD
KAUW 281006Z 2810/2906 27005KT 6SM BR SCT002 SCT012
      TEMPO 2810/2813 1/2SM FG BKN003 BKN012
     FM281400 29004KT P6SM SCT004 BKN020
     FM281600 24006KT P6SM SCT025
     FM282300 18004KT P6SM SKC=

USA.gov is the U.S. government's official web portal to all federal, state and local government web resources and services.